ADDS METAR Data INFO
IDs: Format: Raw Decoded Include TAF

Data at: 0318 UTC 18 Aug 2017

KBKD 180315Z AUTO 19004KT 10SM CLR 25/20 A3003 RMK AO2 T02460197
KBKD 180255Z AUTO 18004KT 10SM CLR 25/20 A3002 RMK AO2 T02460196
KBKD 180235Z AUTO 15004KT 10SM CLR 25/20 A3001 RMK AO2 T02500198
KBKD 180215Z AUTO 12006KT 10SM CLR 25/20 A3002 RMK AO2 T02510200
KBKD 180155Z AUTO 00000KT 10SM CLR 26/20 A3001 RMK AO2 T02570196
KBKD 180135Z AUTO 15003KT 10SM CLR 26/20 A3000 RMK AO2 T02600195
KBKD 180115Z AUTO 18003KT 10SM CLR 27/20 A3000 RMK AO2 T02650195
KBKD 180055Z AUTO 15006KT 10SM CLR 27/20 A3000 RMK AO2 T02680195
KBKD 180035Z AUTO 16009KT 10SM CLR 27/19 A3001 RMK AO2 T02710194
KBKD 180015Z AUTO 16009G16KT 10SM CLR 27/19 A3000 RMK AO2 T02740193
KBKD 172355Z AUTO 17011G24KT 10SM CLR 28/19 A3000 RMK AO2 60001 T02770188 10377 20267
KBKD 172335Z AUTO 17014G24KT 10SM CLR 29/19 A3001 RMK AO2 T02850188
KBKD 172315Z AUTO 19008KT 10SM CLR 28/20 A3001 RMK AO2 T02820204
KBKD 172255Z AUTO 19005KT 10SM CLR 28/20 A3001 RMK AO2 T02810199
KBKD 172235Z AUTO 14006KT 10SM CLR 28/20 A3001 RMK AO2 T02760199
KBKD 172215Z AUTO 11013G21KT 10SM CLR 27/21 A3000 RMK AO2 T02690206
KBKD 172155Z AUTO 22013KT 10SM SCT034 SCT042 SCT050 27/20 A2998 RMK AO2 P0001 T02700203
KBKD 172135Z AUTO 22010G28KT 7SM RA SCT032 SCT042 OVC065 28/20 A2999 RMK AO2 T02810199
KBKD 172115Z AUTO 22008G16KT 10SM BKN075 BKN080 32/18 A2998 RMK AO2 T03190181
KBKD 172055Z AUTO 22012G19KT 10SM SCT075 34/16 A2997 RMK AO2 T03380163
KBKD 172035Z AUTO 22006KT 10SM CLR 37/17 A2997 RMK AO2 T03670172
KBKD 172015Z AUTO 36003KT 10SM SCT070 BKN090 37/17 A2997 RMK AO2 T03710169
KBKD 171955Z AUTO 28006KT 10SM BKN070 BKN080 37/18 A2998 RMK AO2 T03670182
KBKD 171935Z AUTO 17003KT 10SM SCT070 37/18 A2999 RMK AO2 T03710184
KBKD 171915Z AUTO 24005KT 10SM SCT050 37/19 A3000 RMK AO2 T03690186
KBKD 171855Z AUTO 00000KT 10SM SCT050 36/19 A3000 RMK AO2 T03570191
KBKD 171835Z AUTO 26005KT 10SM CLR 35/20 A3001 RMK AO2 T03540201
KBKD 171815Z AUTO 22006KT 10SM CLR 36/20 A3002 RMK AO2 T03570197
KBKD 171755Z AUTO 24010G14KT 10SM CLR 35/20 A3003 RMK AO2 T03510199 10358 20252
KBKD 171735Z AUTO 22006KT 10SM CLR 35/20 A3003 RMK AO2 T03450198
KBKD 171715Z AUTO 28010KT 10SM CLR 34/20 A3003 RMK AO2 T03400198
KBKD 171655Z AUTO 27008KT 10SM CLR 34/20 A3003 RMK AO2 T03420197
KBKD 171635Z AUTO 22007KT 10SM CLR 34/20 A3003 RMK AO2 T03350201
KBKD 171615Z AUTO 25007KT 200V260 10SM CLR 34/20 A3003 RMK AO2 T03380202
KBKD 171555Z AUTO 24008KT 10SM CLR 33/19 A3003 RMK AO2 T03310192
KBKD 171535Z AUTO 24009G14KT 10SM CLR 33/19 A3003 RMK AO2 T03250186
KBKD 171515Z AUTO 21010KT 10SM CLR 32/19 A3003 RMK AO2 T03240187
KBKD 171455Z AUTO 22009KT 10SM CLR 32/19 A3002 RMK AO2 T03190188
KBKD 171435Z AUTO 24006KT 10SM CLR 30/19 A3002 RMK AO2 T02990191
KBKD 171415Z AUTO 22006KT 10SM SCT070 29/19 A3002 RMK AO2 T02910194
KBKD 171355Z AUTO 23004KT 10SM OVC070 27/20 A3002 RMK AO2 T02730196
KBKD 171335Z AUTO 22007KT 10SM OVC070 26/20 A3002 RMK AO2 T02640195
KBKD 171315Z AUTO 22005KT 10SM OVC080 26/20 A3002 RMK AO2 T02610197
KBKD 171255Z AUTO 19004KT 10SM OVC070 26/20 A3001 RMK AO2 T02550196
KBKD 171235Z AUTO 00000KT 10SM BKN070 25/20 A3001 RMK AO2 T02540197
KBKD 171215Z AUTO 00000KT 10SM CLR 26/20 A3000 RMK AO2 T02590195
KBKD 171155Z AUTO 19006KT 10SM CLR 26/20 A2999 RMK AO2 7//// T02580198 10297 20255
KBKD 171135Z AUTO 21005KT 10SM CLR 26/20 A2999 RMK AO2 T02570204
KBKD 171115Z AUTO 23004KT 10SM CLR 26/21 A2998 RMK AO2 T02570206
KBKD 171055Z AUTO 26003KT 10SM CLR 26/21 A2997 RMK AO2 T02580207
KBKD 171035Z AUTO 27004KT 10SM CLR 26/21 A2997 RMK AO2 T02570207
KBKD 171015Z AUTO 00000KT 10SM CLR 26/21 A2995 RMK AO2 T02600210
KBKD 170955Z AUTO 00000KT 10SM CLR 26/21 A2996 RMK AO2 T02610210
KBKD 170935Z AUTO 28003KT 10SM CLR 26/21 A2996 RMK AO2 T02600211
KBKD 170915Z AUTO 00000KT 10SM CLR 27/21 A2996 RMK AO2 T02700205
KBKD 170855Z AUTO 01004KT 10SM CLR 27/21 A2996 RMK AO2 T02680205
KBKD 170835Z AUTO 00000KT 10SM CLR 27/20 A2994 RMK AO2 T02690202
KBKD 170815Z AUTO 00000KT 10SM CLR 27/20 A2994 RMK AO2 T02740200
KBKD 170755Z AUTO 00000KT 10SM CLR 28/20 A2993 RMK AO2 T02770198
KBKD 170735Z AUTO 16003KT 10SM CLR 29/20 A2993 RMK AO2 T02850196
KBKD 170715Z AUTO 20004KT 10SM CLR 29/20 A2993 RMK AO2 T02860197
KBKD 170655Z AUTO 19004KT 10SM CLR 29/20 A2993 RMK AO2 T02900196
KBKD 170635Z AUTO 20006KT 10SM CLR 29/20 A2991 RMK AO2 T02920195
KBKD 170615Z AUTO 21007KT 10SM CLR 30/19 A2991 RMK AO2 T02950191
KBKD 170555Z AUTO 21007KT 10SM CLR 30/19 A2991 RMK AO2 T02970190 10354 20295
KBKD 170535Z AUTO 22006KT 10SM CLR 30/19 A2992 RMK AO2 T02990190
KBKD 170515Z AUTO 17008KT 10SM CLR 30/19 A2990 RMK AO2 T03000190
KBKD 170455Z AUTO 17007KT 10SM CLR 31/19 A2990 RMK AO2 T03050192
KBKD 170435Z AUTO 18012G17KT 10SM CLR 30/20 A2991 RMK AO2 T03010198
KBKD 170415Z AUTO 17007KT 10SM SCT055 SCT070 SCT090 30/21 A2991 RMK AO2 T02980211
KBKD 170355Z AUTO 16005KT 10SM BKN055 BKN080 BKN085 30/21 A2991 RMK AO2 T03000213
KBKD 170335Z AUTO 16005KT 10SM SCT055 30/22 A2990 RMK AO2 T03000215
KBKD 170315Z AUTO 14004KT 10SM BKN055 31/22 A2989 RMK AO2 T03060216
KBKD 170255Z AUTO 15006KT 10SM SCT055 31/22 A2989 RMK AO2 T03070216
KBKD 170235Z AUTO 15007KT 10SM CLR 31/22 A2988 RMK AO2 T03110215
KBKD 170215Z AUTO 16006KT 10SM CLR 32/22 A2987 RMK AO2 T03150215
KBKD 170155Z AUTO 16006KT 10SM SCT060 SCT065 32/22 A2986 RMK AO2 T03190215
KBKD 170135Z AUTO 16006KT 10SM BKN060 33/22 A2987 RMK AO2 T03250215
KBKD 170115Z AUTO 17006KT 10SM SCT060 33/21 A2987 RMK AO2 T03300213
KBKD 170055Z AUTO 16007KT 10SM BKN060 34/21 A2986 RMK AO2 T03350211
KBKD 170035Z AUTO 18007KT 10SM SCT060 34/21 A2986 RMK AO2 T03400205
KBKD 170015Z AUTO 18011G15KT 10SM CLR 35/20 A2985 RMK AO2 T03480202
KBKD 162350Z AUTO 21009KT 10SM SCT055 36/20 A2986 RMK AO2 T03560196 10362 20327
KBKD 162335Z AUTO 21011KT 10SM SCT055 36/20 A2986 RMK AO2 T03580197
KBKD 162315Z AUTO 19009KT 10SM SCT055 36/20 A2985 RMK AO2 T03570198
KBKD 162255Z AUTO 20010G16KT 10SM SCT100 36/20 A2985 RMK AO2 T03610198
KBKD 162235Z AUTO 19009G14KT 10SM SCT050 SCT065 35/20 A2986 RMK AO2 T03470198
KBKD 162215Z AUTO 20012G15KT 7SM SCT049 SCT065 SCT090 36/20 A2986 RMK AO2 T03550203
KBKD 162155Z AUTO 20012KT 10SM BKN049 BKN065 BKN090 35/20 A2986 RMK AO2 T03500204
KBKD 162135Z AUTO 18010G15KT 10SM SCT049 SCT065 36/20 A2986 RMK AO2 T03550200
KBKD 162115Z AUTO 19009G19KT 10SM SCT049 SCT055 SCT065 35/20 A2986 RMK AO2 T03470204
KBKD 162055Z AUTO 17008G12KT 10SM BKN047 35/21 A2987 RMK AO2 T03490205
KBKD 162035Z AUTO 20009G16KT 10SM SCT047 SCT060 34/21 A2988 RMK AO2 T03440207
KBKD 162015Z AUTO 20012G20KT 10SM SCT045 35/21 A2988 RMK AO2 T03520209
KBKD 161955Z AUTO 21013G18KT 7SM BKN043 BKN049 35/21 A2989 RMK AO2 T03450209
KBKD 161935Z AUTO 17012G19KT 10SM BKN043 BKN048 34/21 A2990 RMK AO2 T03420210
KBKD 161915Z AUTO 20014G20KT 10SM SCT039 BKN049 35/21 A2991 RMK AO2 T03460211
KBKD 161855Z AUTO 20015G19KT 7SM BKN041 BKN046 34/21 A2991 RMK AO2 T03390214
KBKD 161835Z AUTO 19013G19KT 160V220 10SM BKN038 BKN043 34/21 A2992 RMK AO2 T03370214
KBKD 161815Z AUTO 19014G19KT 10SM BKN035 33/21 A2992 RMK AO2 T03300214
KBKD 161755Z AUTO 21014G17KT 10SM BKN033 33/21 A2993 RMK AO2 6//// T03300214
KBKD 161735Z AUTO 19017G21KT 10SM BKN031 32/21 A2993 RMK AO2 T03190214
KBKD 161715Z AUTO 19013G19KT 10SM BKN029 BKN110 32/21 A2994 RMK AO2 T03160214
KBKD 161655Z AUTO 18013G20KT 10SM SCT029 BKN110 31/21 A2994 RMK AO2 T03130214